sensor_id;sensor_type;location;lat;lon;timestamp;P1;durP1;ratioP1;P2;durP2;ratioP2
56435;SDS011;42335;44.872;20.658;2024-01-11T00:01:03;72.45;;;32.55;;
56435;SDS011;42335;44.872;20.658;2024-01-11T00:03:29;73.60;;;36.40;;
56435;SDS011;42335;44.872;20.658;2024-01-11T00:05:55;105.20;;;33.75;;
56435;SDS011;42335;44.872;20.658;2024-01-11T00:08:20;89.55;;;36.53;;
56435;SDS011;42335;44.872;20.658;2024-01-11T00:10:46;87.50;;;34.30;;
56435;SDS011;42335;44.872;20.658;2024-01-11T00:13:12;82.50;;;38.63;;
56435;SDS011;42335;44.872;20.658;2024-01-11T00:15:37;80.53;;;34.00;;
56435;SDS011;42335;44.872;20.658;2024-01-11T00:18:03;88.93;;;38.97;;
56435;SDS011;42335;44.872;20.658;2024-01-11T00:20:29;109.03;;;47.55;;
56435;SDS011;42335;44.872;20.658;2024-01-11T00:22:55;87.18;;;40.55;;
56435;SDS011;42335;44.872;20.658;2024-01-11T00:25:20;88.50;;;38.65;;
56435;SDS011;42335;44.872;20.658;2024-01-11T00:27:46;77.05;;;35.72;;
56435;SDS011;42335;44.872;20.658;2024-01-11T00:30:12;69.72;;;33.53;;
56435;SDS011;42335;44.872;20.658;2024-01-11T00:32:38;74.05;;;36.13;;
56435;SDS011;42335;44.872;20.658;2024-01-11T00:35:04;70.05;;;33.45;;
56435;SDS011;42335;44.872;20.658;2024-01-11T00:37:30;66.30;;;30.35;;
56435;SDS011;42335;44.872;20.658;2024-01-11T00:39:56;66.00;;;32.70;;
56435;SDS011;42335;44.872;20.658;2024-01-11T00:42:21;67.07;;;32.78;;
56435;SDS011;42335;44.872;20.658;2024-01-11T00:44:47;64.22;;;30.50;;
56435;SDS011;42335;44.872;20.658;2024-01-11T00:47:14;60.83;;;29.00;;
56435;SDS011;42335;44.872;20.658;2024-01-11T00:49:40;71.95;;;32.17;;
56435;SDS011;42335;44.872;20.658;2024-01-11T00:52:05;69.65;;;32.45;;
56435;SDS011;42335;44.872;20.658;2024-01-11T00:54:31;76.68;;;33.20;;
56435;SDS011;42335;44.872;20.658;2024-01-11T00:56:57;84.35;;;34.15;;
56435;SDS011;42335;44.872;20.658;2024-01-11T00:59:23;79.65;;;32.40;;
56435;SDS011;42335;44.872;20.658;2024-01-11T01:01:49;59.17;;;27.02;;
56435;SDS011;42335;44.872;20.658;2024-01-11T01:04:15;53.72;;;26.25;;
56435;SDS011;42335;44.872;20.658;2024-01-11T01:06:41;59.17;;;27.00;;
56435;SDS011;42335;44.872;20.658;2024-01-11T01:09:07;66.65;;;27.95;;
56435;SDS011;42335;44.872;20.658;2024-01-11T01:11:33;63.50;;;30.20;;
56435;SDS011;42335;44.872;20.658;2024-01-11T01:13:58;59.15;;;27.83;;
56435;SDS011;42335;44.872;20.658;2024-01-11T01:16:24;54.65;;;26.00;;
56435;SDS011;42335;44.872;20.658;2024-01-11T01:18:50;59.50;;;26.80;;
56435;SDS011;42335;44.872;20.658;2024-01-11T01:21:16;76.57;;;31.75;;
56435;SDS011;42335;44.872;20.658;2024-01-11T01:23:41;67.07;;;30.25;;
56435;SDS011;42335;44.872;20.658;2024-01-11T01:26:07;63.22;;;29.77;;
56435;SDS011;42335;44.872;20.658;2024-01-11T01:28:33;74.25;;;30.92;;
56435;SDS011;42335;44.872;20.658;2024-01-11T01:30:58;64.80;;;30.33;;
56435;SDS011;42335;44.872;20.658;2024-01-11T01:33:24;63.85;;;29.27;;
56435;SDS011;42335;44.872;20.658;2024-01-11T01:35:50;69.28;;;32.00;;
56435;SDS011;42335;44.872;20.658;2024-01-11T01:38:15;69.30;;;29.95;;
56435;SDS011;42335;44.872;20.658;2024-01-11T01:40:42;70.55;;;30.85;;
56435;SDS011;42335;44.872;20.658;2024-01-11T01:43:09;86.65;;;39.28;;
56435;SDS011;42335;44.872;20.658;2024-01-11T01:45:35;88.75;;;38.60;;
56435;SDS011;42335;44.872;20.658;2024-01-11T01:48:01;79.97;;;37.53;;
56435;SDS011;42335;44.872;20.658;2024-01-11T01:50:27;107.75;;;50.35;;
56435;SDS011;42335;44.872;20.658;2024-01-11T01:52:54;85.70;;;38.05;;
56435;SDS011;42335;44.872;20.658;2024-01-11T01:55:21;118.28;;;55.88;;
56435;SDS011;42335;44.872;20.658;2024-01-11T01:57:48;95.93;;;40.08;;
56435;SDS011;42335;44.872;20.658;2024-01-11T02:00:15;89.35;;;38.45;;
56435;SDS011;42335;44.872;20.658;2024-01-11T02:02:45;124.78;;;52.10;;
56435;SDS011;42335;44.872;20.658;2024-01-11T02:05:13;174.80;;;70.70;;
56435;SDS011;42335;44.872;20.658;2024-01-11T02:07:41;262.52;;;106.22;;
56435;SDS011;42335;44.872;20.658;2024-01-11T02:10:07;109.70;;;47.20;;
56435;SDS011;42335;44.872;20.658;2024-01-11T02:12:37;177.02;;;75.40;;
56435;SDS011;42335;44.872;20.658;2024-01-11T02:15:03;192.45;;;80.97;;
56435;SDS011;42335;44.872;20.658;2024-01-11T02:17:32;252.32;;;107.10;;
56435;SDS011;42335;44.872;20.658;2024-01-11T02:19:58;141.13;;;58.53;;
56435;SDS011;42335;44.872;20.658;2024-01-11T02:22:24;226.60;;;99.20;;
56435;SDS011;42335;44.872;20.658;2024-01-11T02:24:55;93.72;;;38.03;;
56435;SDS011;42335;44.872;20.658;2024-01-11T02:27:22;65.78;;;32.22;;
56435;SDS011;42335;44.872;20.658;2024-01-11T02:29:48;82.38;;;36.80;;
56435;SDS011;42335;44.872;20.658;2024-01-11T02:32:14;99.38;;;47.25;;
56435;SDS011;42335;44.872;20.658;2024-01-11T02:34:39;78.68;;;39.08;;
56435;SDS011;42335;44.872;20.658;2024-01-11T02:37:06;89.25;;;39.42;;
56435;SDS011;42335;44.872;20.658;2024-01-11T02:39:32;76.80;;;38.03;;
56435;SDS011;42335;44.872;20.658;2024-01-11T02:41:59;69.32;;;32.72;;
56435;SDS011;42335;44.872;20.658;2024-01-11T02:44:26;75.43;;;36.17;;
56435;SDS011;42335;44.872;20.658;2024-01-11T02:46:52;79.97;;;36.80;;
56435;SDS011;42335;44.872;20.658;2024-01-11T02:49:17;78.90;;;36.17;;
56435;SDS011;42335;44.872;20.658;2024-01-11T02:51:43;71.68;;;33.65;;
56435;SDS011;42335;44.872;20.658;2024-01-11T02:54:09;66.55;;;31.30;;
56435;SDS011;42335;44.872;20.658;2024-01-11T02:56:35;67.65;;;32.33;;
56435;SDS011;42335;44.872;20.658;2024-01-11T02:59:01;62.67;;;31.58;;
56435;SDS011;42335;44.872;20.658;2024-01-11T03:01:27;73.32;;;33.10;;
56435;SDS011;42335;44.872;20.658;2024-01-11T03:03:53;74.78;;;33.67;;
56435;SDS011;42335;44.872;20.658;2024-01-11T03:06:20;67.07;;;31.27;;
56435;SDS011;42335;44.872;20.658;2024-01-11T03:08:46;77.07;;;34.10;;
56435;SDS011;42335;44.872;20.658;2024-01-11T03:11:13;75.97;;;34.63;;
56435;SDS011;42335;44.872;20.658;2024-01-11T03:13:39;70.93;;;32.15;;
56435;SDS011;42335;44.872;20.658;2024-01-11T03:16:05;76.45;;;33.92;;
56435;SDS011;42335;44.872;20.658;2024-01-11T03:18:31;63.83;;;29.52;;
56435;SDS011;42335;44.872;20.658;2024-01-11T03:20:56;65.97;;;31.58;;
56435;SDS011;42335;44.872;20.658;2024-01-11T03:23:22;69.70;;;30.10;;
56435;SDS011;42335;44.872;20.658;2024-01-11T03:25:48;62.08;;;29.15;;
56435;SDS011;42335;44.872;20.658;2024-01-11T03:28:14;65.57;;;28.20;;
56435;SDS011;42335;44.872;20.658;2024-01-11T03:30:40;82.40;;;30.38;;
56435;SDS011;42335;44.872;20.658;2024-01-11T03:33:05;53.75;;;26.60;;
56435;SDS011;42335;44.872;20.658;2024-01-11T03:35:31;62.97;;;30.67;;
56435;SDS011;42335;44.872;20.658;2024-01-11T03:37:57;69.38;;;31.52;;
56435;SDS011;42335;44.872;20.658;2024-01-11T03:40:22;68.75;;;30.17;;
56435;SDS011;42335;44.872;20.658;2024-01-11T03:42:48;61.33;;;30.88;;
56435;SDS011;42335;44.872;20.658;2024-01-11T03:45:17;71.13;;;31.70;;
56435;SDS011;42335;44.872;20.658;2024-01-11T03:47:44;70.95;;;31.02;;
56435;SDS011;42335;44.872;20.658;2024-01-11T03:50:10;87.82;;;35.22;;
56435;SDS011;42335;44.872;20.658;2024-01-11T03:52:36;82.45;;;34.25;;
56435;SDS011;42335;44.872;20.658;2024-01-11T03:55:01;77.72;;;33.38;;
56435;SDS011;42335;44.872;20.658;2024-01-11T03:57:27;97.40;;;37.83;;
56435;SDS011;42335;44.872;20.658;2024-01-11T03:59:53;106.68;;;39.13;;
56435;SDS011;42335;44.872;20.658;2024-01-11T04:02:19;121.63;;;40.40;;
56435;SDS011;42335;44.872;20.658;2024-01-11T04:04:45;86.90;;;38.60;;
56435;SDS011;42335;44.872;20.658;2024-01-11T04:07:10;100.97;;;39.58;;
56435;SDS011;42335;44.872;20.658;2024-01-11T04:09:37;89.55;;;39.88;;
56435;SDS011;42335;44.872;20.658;2024-01-11T04:12:03;128.43;;;42.38;;
56435;SDS011;42335;44.872;20.658;2024-01-11T04:14:30;116.00;;;42.83;;
56435;SDS011;42335;44.872;20.658;2024-01-11T04:16:56;124.22;;;47.50;;
56435;SDS011;42335;44.872;20.658;2024-01-11T04:19:21;144.05;;;46.75;;
56435;SDS011;42335;44.872;20.658;2024-01-11T04:21:47;132.43;;;49.45;;
56435;SDS011;42335;44.872;20.658;2024-01-11T04:24:13;127.30;;;45.85;;
56435;SDS011;42335;44.872;20.658;2024-01-11T04:26:39;120.07;;;46.30;;
56435;SDS011;42335;44.872;20.658;2024-01-11T04:29:04;105.25;;;46.13;;
56435;SDS011;42335;44.872;20.658;2024-01-11T04:31:30;112.28;;;48.72;;
56435;SDS011;42335;44.872;20.658;2024-01-11T04:33:56;136.98;;;51.38;;
56435;SDS011;42335;44.872;20.658;2024-01-11T04:36:21;125.93;;;50.85;;
56435;SDS011;42335;44.872;20.658;2024-01-11T04:38:47;129.55;;;50.97;;
56435;SDS011;42335;44.872;20.658;2024-01-11T04:41:13;128.73;;;51.13;;
56435;SDS011;42335;44.872;20.658;2024-01-11T04:43:40;159.43;;;52.45;;
56435;SDS011;42335;44.872;20.658;2024-01-11T04:46:13;134.73;;;53.90;;
56435;SDS011;42335;44.872;20.658;2024-01-11T04:48:39;137.07;;;45.92;;
56435;SDS011;42335;44.872;20.658;2024-01-11T04:51:05;112.07;;;44.10;;
56435;SDS011;42335;44.872;20.658;2024-01-11T04:53:31;171.75;;;47.08;;
56435;SDS011;42335;44.872;20.658;2024-01-11T04:55:57;118.15;;;46.83;;
56435;SDS011;42335;44.872;20.658;2024-01-11T04:58:23;134.68;;;50.47;;
56435;SDS011;42335;44.872;20.658;2024-01-11T05:00:49;132.95;;;48.47;;
56435;SDS011;42335;44.872;20.658;2024-01-11T05:03:14;133.75;;;52.83;;
56435;SDS011;42335;44.872;20.658;2024-01-11T05:05:40;150.77;;;53.33;;
56435;SDS011;42335;44.872;20.658;2024-01-11T05:08:06;130.98;;;51.78;;
56435;SDS011;42335;44.872;20.658;2024-01-11T05:10:32;143.50;;;53.03;;
56435;SDS011;42335;44.872;20.658;2024-01-11T05:12:57;131.07;;;53.80;;
56435;SDS011;42335;44.872;20.658;2024-01-11T05:15:23;146.60;;;52.63;;
56435;SDS011;42335;44.872;20.658;2024-01-11T05:17:49;114.60;;;48.30;;
56435;SDS011;42335;44.872;20.658;2024-01-11T05:20:16;130.23;;;53.50;;
56435;SDS011;42335;44.872;20.658;2024-01-11T05:22:41;154.00;;;56.22;;
56435;SDS011;42335;44.872;20.658;2024-01-11T05:25:07;150.27;;;60.53;;
56435;SDS011;42335;44.872;20.658;2024-01-11T05:27:33;216.57;;;78.35;;
56435;SDS011;42335;44.872;20.658;2024-01-11T05:29:58;190.30;;;66.75;;
56435;SDS011;42335;44.872;20.658;2024-01-11T05:32:24;174.90;;;68.85;;
56435;SDS011;42335;44.872;20.658;2024-01-11T05:34:50;162.35;;;59.05;;
56435;SDS011;42335;44.872;20.658;2024-01-11T05:37:16;192.45;;;73.28;;
56435;SDS011;42335;44.872;20.658;2024-01-11T05:39:41;213.45;;;82.20;;
56435;SDS011;42335;44.872;20.658;2024-01-11T05:42:07;188.70;;;73.53;;
56435;SDS011;42335;44.872;20.658;2024-01-11T05:44:33;174.20;;;70.55;;
56435;SDS011;42335;44.872;20.658;2024-01-11T05:46:59;157.38;;;66.57;;
56435;SDS011;42335;44.872;20.658;2024-01-11T05:49:24;149.90;;;60.45;;
56435;SDS011;42335;44.872;20.658;2024-01-11T05:51:50;139.35;;;63.63;;
56435;SDS011;42335;44.872;20.658;2024-01-11T05:54:16;114.85;;;53.83;;
56435;SDS011;42335;44.872;20.658;2024-01-11T05:56:41;124.15;;;55.30;;
56435;SDS011;42335;44.872;20.658;2024-01-11T05:59:07;128.18;;;61.05;;
56435;SDS011;42335;44.872;20.658;2024-01-11T06:01:33;148.73;;;66.82;;
56435;SDS011;42335;44.872;20.658;2024-01-11T06:03:58;148.77;;;66.15;;
56435;SDS011;42335;44.872;20.658;2024-01-11T06:06:24;140.07;;;65.60;;
56435;SDS011;42335;44.872;20.658;2024-01-11T06:08:50;123.18;;;56.75;;
56435;SDS011;42335;44.872;20.658;2024-01-11T06:11:15;112.32;;;54.97;;
56435;SDS011;42335;44.872;20.658;2024-01-11T06:13:43;128.32;;;52.38;;
56435;SDS011;42335;44.872;20.658;2024-01-11T06:16:09;122.82;;;52.05;;
56435;SDS011;42335;44.872;20.658;2024-01-11T06:18:35;119.53;;;56.03;;
56435;SDS011;42335;44.872;20.658;2024-01-11T06:21:01;99.43;;;45.63;;
56435;SDS011;42335;44.872;20.658;2024-01-11T06:23:27;124.05;;;55.00;;
56435;SDS011;42335;44.872;20.658;2024-01-11T06:25:52;125.53;;;58.78;;
56435;SDS011;42335;44.872;20.658;2024-01-11T06:28:18;124.28;;;57.63;;
56435;SDS011;42335;44.872;20.658;2024-01-11T06:30:44;134.35;;;59.08;;
56435;SDS011;42335;44.872;20.658;2024-01-11T06:33:09;130.52;;;60.85;;
56435;SDS011;42335;44.872;20.658;2024-01-11T06:35:35;121.75;;;54.58;;
56435;SDS011;42335;44.872;20.658;2024-01-11T06:38:01;122.63;;;54.47;;
56435;SDS011;42335;44.872;20.658;2024-01-11T06:40:27;135.35;;;54.50;;
56435;SDS011;42335;44.872;20.658;2024-01-11T06:42:53;127.88;;;57.88;;
56435;SDS011;42335;44.872;20.658;2024-01-11T06:45:19;172.85;;;59.97;;
56435;SDS011;42335;44.872;20.658;2024-01-11T06:47:45;130.93;;;54.65;;
56435;SDS011;42335;44.872;20.658;2024-01-11T06:50:14;120.60;;;57.55;;
56435;SDS011;42335;44.872;20.658;2024-01-11T06:52:40;107.22;;;50.22;;
56435;SDS011;42335;44.872;20.658;2024-01-11T06:55:06;118.90;;;49.47;;
56435;SDS011;42335;44.872;20.658;2024-01-11T06:57:32;99.03;;;44.75;;
56435;SDS011;42335;44.872;20.658;2024-01-11T06:59:58;103.00;;;46.05;;
56435;SDS011;42335;44.872;20.658;2024-01-11T07:02:23;98.30;;;45.72;;
56435;SDS011;42335;44.872;20.658;2024-01-11T07:04:49;110.57;;;50.08;;
56435;SDS011;42335;44.872;20.658;2024-01-11T07:07:15;83.40;;;39.90;;
56435;SDS011;42335;44.872;20.658;2024-01-11T07:09:41;101.55;;;48.17;;
56435;SDS011;42335;44.872;20.658;2024-01-11T07:12:06;110.72;;;46.35;;
56435;SDS011;42335;44.872;20.658;2024-01-11T07:14:32;104.25;;;46.58;;
56435;SDS011;42335;44.872;20.658;2024-01-11T07:16:58;104.43;;;48.90;;
56435;SDS011;42335;44.872;20.658;2024-01-11T07:19:24;112.00;;;55.65;;
56435;SDS011;42335;44.872;20.658;2024-01-11T07:21:49;134.32;;;55.75;;
56435;SDS011;42335;44.872;20.658;2024-01-11T07:24:15;122.55;;;54.20;;
56435;SDS011;42335;44.872;20.658;2024-01-11T07:26:43;113.32;;;52.47;;
56435;SDS011;42335;44.872;20.658;2024-01-11T07:29:09;122.68;;;56.08;;
56435;SDS011;42335;44.872;20.658;2024-01-11T07:31:35;115.05;;;53.33;;
56435;SDS011;42335;44.872;20.658;2024-01-11T07:34:00;123.28;;;56.90;;
56435;SDS011;42335;44.872;20.658;2024-01-11T07:36:26;135.57;;;55.67;;
56435;SDS011;42335;44.872;20.658;2024-01-11T07:38:52;124.50;;;57.67;;
56435;SDS011;42335;44.872;20.658;2024-01-11T07:41:18;129.63;;;59.00;;
56435;SDS011;42335;44.872;20.658;2024-01-11T07:43:46;118.60;;;54.97;;
56435;SDS011;42335;44.872;20.658;2024-01-11T07:46:12;144.57;;;65.85;;
56435;SDS011;42335;44.872;20.658;2024-01-11T07:48:37;134.57;;;65.07;;
56435;SDS011;42335;44.872;20.658;2024-01-11T07:51:03;155.10;;;74.97;;
56435;SDS011;42335;44.872;20.658;2024-01-11T07:53:29;152.95;;;72.80;;
56435;SDS011;42335;44.872;20.658;2024-01-11T07:55:57;152.50;;;76.85;;
56435;SDS011;42335;44.872;20.658;2024-01-11T07:58:23;128.93;;;59.67;;
56435;SDS011;42335;44.872;20.658;2024-01-11T08:00:49;131.25;;;64.50;;
56435;SDS011;42335;44.872;20.658;2024-01-11T08:03:15;147.45;;;70.95;;
56435;SDS011;42335;44.872;20.658;2024-01-11T08:05:41;137.25;;;65.50;;
56435;SDS011;42335;44.872;20.658;2024-01-11T08:08:08;157.23;;;74.97;;
56435;SDS011;42335;44.872;20.658;2024-01-11T08:10:33;171.70;;;75.50;;
56435;SDS011;42335;44.872;20.658;2024-01-11T08:12:59;146.57;;;71.25;;
56435;SDS011;42335;44.872;20.658;2024-01-11T08:15:25;162.85;;;74.53;;
56435;SDS011;42335;44.872;20.658;2024-01-11T08:17:51;159.75;;;76.05;;
56435;SDS011;42335;44.872;20.658;2024-01-11T08:20:18;144.52;;;69.07;;
56435;SDS011;42335;44.872;20.658;2024-01-11T08:22:44;126.57;;;59.85;;
56435;SDS011;42335;44.872;20.658;2024-01-11T08:25:13;155.60;;;68.05;;
56435;SDS011;42335;44.872;20.658;2024-01-11T08:27:39;147.57;;;67.25;;
56435;SDS011;42335;44.872;20.658;2024-01-11T08:30:06;156.57;;;73.65;;
56435;SDS011;42335;44.872;20.658;2024-01-11T08:32:33;160.43;;;78.55;;
56435;SDS011;42335;44.872;20.658;2024-01-11T08:35:04;129.68;;;64.47;;
56435;SDS011;42335;44.872;20.658;2024-01-11T08:37:35;129.40;;;64.10;;
56435;SDS011;42335;44.872;20.658;2024-01-11T08:40:01;138.05;;;64.07;;
56435;SDS011;42335;44.872;20.658;2024-01-11T08:42:29;142.63;;;68.10;;
56435;SDS011;42335;44.872;20.658;2024-01-11T08:44:56;161.35;;;70.20;;
56435;SDS011;42335;44.872;20.658;2024-01-11T08:47:21;145.18;;;68.05;;
56435;SDS011;42335;44.872;20.658;2024-01-11T08:49:47;171.05;;;75.28;;
56435;SDS011;42335;44.872;20.658;2024-01-11T08:52:13;135.40;;;63.35;;
56435;SDS011;42335;44.872;20.658;2024-01-11T08:54:38;136.98;;;63.10;;
56435;SDS011;42335;44.872;20.658;2024-01-11T08:57:04;139.40;;;64.93;;
56435;SDS011;42335;44.872;20.658;2024-01-11T08:59:30;147.98;;;65.53;;
56435;SDS011;42335;44.872;20.658;2024-01-11T09:01:56;166.13;;;72.38;;
56435;SDS011;42335;44.872;20.658;2024-01-11T09:04:21;181.40;;;76.35;;
56435;SDS011;42335;44.872;20.658;2024-01-11T09:06:47;212.13;;;92.25;;
56435;SDS011;42335;44.872;20.658;2024-01-11T09:09:13;182.65;;;89.80;;
56435;SDS011;42335;44.872;20.658;2024-01-11T09:11:39;175.35;;;79.28;;
56435;SDS011;42335;44.872;20.658;2024-01-11T09:14:08;170.27;;;77.53;;
56435;SDS011;42335;44.872;20.658;2024-01-11T09:16:36;162.23;;;73.00;;
56435;SDS011;42335;44.872;20.658;2024-01-11T09:19:02;162.95;;;74.38;;
56435;SDS011;42335;44.872;20.658;2024-01-11T09:21:28;142.30;;;67.47;;
56435;SDS011;42335;44.872;20.658;2024-01-11T09:23:53;148.57;;;68.22;;
56435;SDS011;42335;44.872;20.658;2024-01-11T09:26:20;168.23;;;77.13;;
56435;SDS011;42335;44.872;20.658;2024-01-11T09:28:47;169.82;;;73.43;;
56435;SDS011;42335;44.872;20.658;2024-01-11T09:31:13;187.98;;;81.63;;
56435;SDS011;42335;44.872;20.658;2024-01-11T09:33:39;173.93;;;78.53;;
56435;SDS011;42335;44.872;20.658;2024-01-11T09:36:05;153.68;;;70.55;;
56435;SDS011;42335;44.872;20.658;2024-01-11T09:38:33;164.10;;;70.18;;
56435;SDS011;42335;44.872;20.658;2024-01-11T09:43:33;172.13;;;71.32;;
56435;SDS011;42335;44.872;20.658;2024-01-11T09:46:03;171.02;;;72.53;;
56435;SDS011;42335;44.872;20.658;2024-01-11T09:48:33;173.35;;;71.68;;
56435;SDS011;42335;44.872;20.658;2024-01-11T09:51:03;177.40;;;78.05;;
56435;SDS011;42335;44.872;20.658;2024-01-11T09:53:34;220.30;;;89.75;;
56435;SDS011;42335;44.872;20.658;2024-01-11T09:56:03;176.60;;;74.78;;
56435;SDS011;42335;44.872;20.658;2024-01-11T09:58:34;165.13;;;71.88;;
56435;SDS011;42335;44.872;20.658;2024-01-11T10:01:05;160.77;;;67.97;;
56435;SDS011;42335;44.872;20.658;2024-01-11T10:03:34;179.48;;;72.68;;
56435;SDS011;42335;44.872;20.658;2024-01-11T10:06:00;181.77;;;81.10;;
56435;SDS011;42335;44.872;20.658;2024-01-11T10:08:27;181.07;;;75.78;;
56435;SDS011;42335;44.872;20.658;2024-01-11T10:10:55;209.75;;;87.28;;
56435;SDS011;42335;44.872;20.658;2024-01-11T10:13:27;180.85;;;77.60;;
56435;SDS011;42335;44.872;20.658;2024-01-11T10:16:10;183.38;;;75.35;;
56435;SDS011;42335;44.872;20.658;2024-01-11T10:18:40;217.07;;;87.32;;
56435;SDS011;42335;44.872;20.658;2024-01-11T10:21:07;194.10;;;78.93;;
56435;SDS011;42335;44.872;20.658;2024-01-11T10:23:34;167.23;;;73.03;;
56435;SDS011;42335;44.872;20.658;2024-01-11T10:26:01;182.98;;;78.38;;
56435;SDS011;42335;44.872;20.658;2024-01-11T10:28:27;163.00;;;65.78;;
56435;SDS011;42335;44.872;20.658;2024-01-11T10:30:53;223.73;;;89.82;;
56435;SDS011;42335;44.872;20.658;2024-01-11T10:33:19;197.45;;;87.53;;
56435;SDS011;42335;44.872;20.658;2024-01-11T10:35:46;205.38;;;94.05;;
56435;SDS011;42335;44.872;20.658;2024-01-11T10:38:14;215.82;;;92.80;;
56435;SDS011;42335;44.872;20.658;2024-01-11T10:40:40;214.68;;;94.32;;
56435;SDS011;42335;44.872;20.658;2024-01-11T10:43:08;200.68;;;83.78;;
56435;SDS011;42335;44.872;20.658;2024-01-11T10:45:36;191.73;;;79.55;;
56435;SDS011;42335;44.872;20.658;2024-01-11T10:48:06;158.35;;;74.85;;
56435;SDS011;42335;44.872;20.658;2024-01-11T10:50:37;165.20;;;75.63;;
56435;SDS011;42335;44.872;20.658;2024-01-11T10:56:12;185.45;;;85.18;;
56435;SDS011;42335;44.872;20.658;2024-01-11T10:58:42;187.05;;;85.90;;
56435;SDS011;42335;44.872;20.658;2024-01-11T11:01:10;228.02;;;119.32;;
56435;SDS011;42335;44.872;20.658;2024-01-11T11:03:37;182.18;;;79.75;;
56435;SDS011;42335;44.872;20.658;2024-01-11T11:06:04;176.95;;;76.50;;
56435;SDS011;42335;44.872;20.658;2024-01-11T11:08:31;195.63;;;85.78;;
56435;SDS011;42335;44.872;20.658;2024-01-11T11:10:59;248.48;;;110.80;;
56435;SDS011;42335;44.872;20.658;2024-01-11T11:13:28;188.07;;;81.72;;
56435;SDS011;42335;44.872;20.658;2024-01-11T11:15:54;164.88;;;72.13;;
56435;SDS011;42335;44.872;20.658;2024-01-11T11:18:22;197.95;;;85.18;;
56435;SDS011;42335;44.872;20.658;2024-01-11T11:20:49;203.05;;;94.65;;
56435;SDS011;42335;44.872;20.658;2024-01-11T11:23:16;175.13;;;81.78;;
56435;SDS011;42335;44.872;20.658;2024-01-11T11:25:47;159.95;;;74.75;;
56435;SDS011;42335;44.872;20.658;2024-01-11T11:28:14;168.07;;;77.70;;
56435;SDS011;42335;44.872;20.658;2024-01-11T11:30:42;200.75;;;94.13;;
56435;SDS011;42335;44.872;20.658;2024-01-11T11:33:09;197.73;;;85.13;;
56435;SDS011;42335;44.872;20.658;2024-01-11T11:35:36;208.10;;;90.57;;
56435;SDS011;42335;44.872;20.658;2024-01-11T11:38:02;151.43;;;73.05;;
56435;SDS011;42335;44.872;20.658;2024-01-11T11:40:36;157.50;;;71.22;;
56435;SDS011;42335;44.872;20.658;2024-01-11T11:43:07;172.75;;;75.07;;
56435;SDS011;42335;44.872;20.658;2024-01-11T11:45:34;151.02;;;64.95;;
56435;SDS011;42335;44.872;20.658;2024-01-11T11:48:00;141.68;;;67.72;;
56435;SDS011;42335;44.872;20.658;2024-01-11T11:50:27;151.90;;;68.72;;
56435;SDS011;42335;44.872;20.658;2024-01-11T11:52:56;132.13;;;65.50;;
56435;SDS011;42335;44.872;20.658;2024-01-11T11:55:23;145.10;;;62.97;;
56435;SDS011;42335;44.872;20.658;2024-01-11T11:57:52;125.50;;;61.10;;
56435;SDS011;42335;44.872;20.658;2024-01-11T12:00:21;137.88;;;68.57;;
56435;SDS011;42335;44.872;20.658;2024-01-11T12:02:51;138.52;;;65.25;;
56435;SDS011;42335;44.872;20.658;2024-01-11T12:05:17;150.10;;;68.15;;
56435;SDS011;42335;44.872;20.658;2024-01-11T12:07:44;149.25;;;69.20;;
56435;SDS011;42335;44.872;20.658;2024-01-11T12:10:10;149.43;;;70.07;;
56435;SDS011;42335;44.872;20.658;2024-01-11T12:12:37;158.38;;;69.57;;
56435;SDS011;42335;44.872;20.658;2024-01-11T12:15:04;146.85;;;72.60;;
56435;SDS011;42335;44.872;20.658;2024-01-11T12:17:30;169.15;;;74.55;;
56435;SDS011;42335;44.872;20.658;2024-01-11T12:19:56;168.80;;;74.80;;
56435;SDS011;42335;44.872;20.658;2024-01-11T12:22:23;186.23;;;79.60;;
56435;SDS011;42335;44.872;20.658;2024-01-11T12:24:49;176.88;;;76.28;;
56435;SDS011;42335;44.872;20.658;2024-01-11T12:27:15;186.80;;;82.53;;
56435;SDS011;42335;44.872;20.658;2024-01-11T12:29:41;178.18;;;82.70;;
56435;SDS011;42335;44.872;20.658;2024-01-11T12:32:07;189.00;;;88.47;;
56435;SDS011;42335;44.872;20.658;2024-01-11T12:34:36;186.38;;;86.13;;
56435;SDS011;42335;44.872;20.658;2024-01-11T12:37:02;182.65;;;82.05;;
56435;SDS011;42335;44.872;20.658;2024-01-11T12:39:30;199.07;;;91.65;;
56435;SDS011;42335;44.872;20.658;2024-01-11T12:41:56;191.55;;;86.38;;
56435;SDS011;42335;44.872;20.658;2024-01-11T12:44:23;191.50;;;85.90;;
56435;SDS011;42335;44.872;20.658;2024-01-11T12:46:49;187.60;;;82.18;;
56435;SDS011;42335;44.872;20.658;2024-01-11T12:49:16;222.80;;;95.40;;
56435;SDS011;42335;44.872;20.658;2024-01-11T12:51:42;203.48;;;86.03;;
56435;SDS011;42335;44.872;20.658;2024-01-11T12:54:13;201.57;;;87.45;;
56435;SDS011;42335;44.872;20.658;2024-01-11T12:56:42;222.23;;;90.45;;
56435;SDS011;42335;44.872;20.658;2024-01-11T12:59:08;233.38;;;100.30;;
56435;SDS011;42335;44.872;20.658;2024-01-11T13:01:36;203.93;;;89.60;;
56435;SDS011;42335;44.872;20.658;2024-01-11T13:04:03;275.98;;;112.25;;
56435;SDS011;42335;44.872;20.658;2024-01-11T13:06:29;248.32;;;105.68;;
56435;SDS011;42335;44.872;20.658;2024-01-11T13:08:56;183.50;;;82.05;;
56435;SDS011;42335;44.872;20.658;2024-01-11T13:11:22;184.38;;;84.32;;
56435;SDS011;42335;44.872;20.658;2024-01-11T13:13:49;201.30;;;94.30;;
56435;SDS011;42335;44.872;20.658;2024-01-11T13:16:16;183.90;;;81.45;;
56435;SDS011;42335;44.872;20.658;2024-01-11T13:18:44;191.60;;;87.38;;
56435;SDS011;42335;44.872;20.658;2024-01-11T13:21:10;184.18;;;85.35;;
56435;SDS011;42335;44.872;20.658;2024-01-11T13:23:37;207.82;;;93.15;;
56435;SDS011;42335;44.872;20.658;2024-01-11T13:26:04;199.38;;;87.43;;
56435;SDS011;42335;44.872;20.658;2024-01-11T13:28:31;189.55;;;83.60;;
56435;SDS011;42335;44.872;20.658;2024-01-11T13:30:58;166.85;;;75.07;;
56435;SDS011;42335;44.872;20.658;2024-01-11T13:33:24;214.80;;;100.25;;
56435;SDS011;42335;44.872;20.658;2024-01-11T13:35:50;186.02;;;93.05;;
56435;SDS011;42335;44.872;20.658;2024-01-11T13:38:16;171.73;;;85.82;;
56435;SDS011;42335;44.872;20.658;2024-01-11T13:40:42;179.70;;;92.00;;
56435;SDS011;42335;44.872;20.658;2024-01-11T13:43:08;191.15;;;89.85;;
56435;SDS011;42335;44.872;20.658;2024-01-11T13:45:35;173.73;;;80.13;;
56435;SDS011;42335;44.872;20.658;2024-01-11T13:48:01;167.73;;;80.30;;
56435;SDS011;42335;44.872;20.658;2024-01-11T13:50:28;162.45;;;78.13;;
56435;SDS011;42335;44.872;20.658;2024-01-11T13:52:54;188.27;;;85.68;;
56435;SDS011;42335;44.872;20.658;2024-01-11T13:55:20;167.63;;;76.30;;
56435;SDS011;42335;44.872;20.658;2024-01-11T13:57:46;169.57;;;79.75;;
56435;SDS011;42335;44.872;20.658;2024-01-11T14:00:13;187.43;;;84.22;;